Terminal Aerodrome Forecast
Issued by NWS

Current Version | Previous Version | Text Only | Print | Product List | Glossary On
Versions: 1 2 3 4 5 6 7 8 9 10 11 12 13 14 15 16
000
FTUS43 KIND 061120
TAFHUF
TAF
KHUF 061120Z 0612/0712 VRB02KT P6SM SKC
      TEMPO 0612/0613 3SM BR
     FM061600 32006KT P6SM SCT100
     FM062200 28006KT P6SM SCT100
     FM070200 24003KT P6SM SCT100
     FM070800 25006KT P6SM SCT100=

USA.gov is the U.S. government's official web portal to all federal, state and local government web resources and services.